sensor_id;sensor_type;location;lat;lon;timestamp;P1;P2;P0
79418;PMS5003;68866;49.902;8.680;2023-06-22T00:00:58;28;28;
79418;PMS5003;68866;49.902;8.680;2023-06-22T00:10:20;44;44;
79418;PMS5003;68866;49.902;8.680;2023-06-22T00:20:52;46;46;
79418;PMS5003;68866;49.902;8.680;2023-06-22T00:30:15;46;46;
79418;PMS5003;68866;49.902;8.680;2023-06-22T00:40:47;46;46;
79418;PMS5003;68866;49.902;8.680;2023-06-22T00:50:09;36;32;
79418;PMS5003;68866;49.902;8.680;2023-06-22T01:00:48;62;54;
79418;PMS5003;68866;49.902;8.680;2023-06-22T01:10:11;36;36;
79418;PMS5003;68866;49.902;8.680;2023-06-22T01:20:50;42;32;
79418;PMS5003;68866;49.902;8.680;2023-06-22T01:30:13;64;48;
79418;PMS5003;68866;49.902;8.680;2023-06-22T01:40:48;50;44;
79418;PMS5003;68866;49.902;8.680;2023-06-22T01:50:11;40;40;
79418;PMS5003;68866;49.902;8.680;2023-06-22T01:56:03;34;34;
79418;PMS5003;68866;49.902;8.680;2023-06-22T02:00:47;46;46;
79418;PMS5003;68866;49.902;8.680;2023-06-22T02:10:15;44;38;
79418;PMS5003;68866;49.902;8.680;2023-06-22T02:25:31;46;46;
79418;PMS5003;68866;49.902;8.680;2023-06-22T02:30:13;52;52;
79418;PMS5003;68866;49.902;8.680;2023-06-22T02:40:46;52;48;
79418;PMS5003;68866;49.902;8.680;2023-06-22T02:50:08;46;46;
79418;PMS5003;68866;49.902;8.680;2023-06-22T03:00:41;50;50;
79418;PMS5003;68866;49.902;8.680;2023-06-22T03:11:13;44;44;
79418;PMS5003;68866;49.902;8.680;2023-06-22T03:20:35;40;40;
79418;PMS5003;68866;49.902;8.680;2023-06-22T03:31:06;64;54;
79418;PMS5003;68866;49.902;8.680;2023-06-22T03:40:29;74;58;
79418;PMS5003;68866;49.902;8.680;2023-06-22T03:51:01;54;54;
79418;PMS5003;68866;49.902;8.680;2023-06-22T04:00:23;50;50;
79418;PMS5003;68866;49.902;8.680;2023-06-22T04:10:55;54;54;
79418;PMS5003;68866;49.902;8.680;2023-06-22T04:20:17;50;50;
79418;PMS5003;68866;49.902;8.680;2023-06-22T04:30:48;64;60;
79418;PMS5003;68866;49.902;8.680;2023-06-22T04:40:10;70;58;
79418;PMS5003;68866;49.902;8.680;2023-06-22T04:50:42;54;54;
79418;PMS5003;68866;49.902;8.680;2023-06-22T05:00:04;54;54;
79418;PMS5003;68866;49.902;8.680;2023-06-22T05:10:38;48;48;
79418;PMS5003;68866;49.902;8.680;2023-06-22T05:21:09;62;62;
79418;PMS5003;68866;49.902;8.680;2023-06-22T05:30:31;84;76;
79418;PMS5003;68866;49.902;8.680;2023-06-22T05:41:03;58;58;
79418;PMS5003;68866;49.902;8.680;2023-06-22T05:50:24;60;54;
79418;PMS5003;68866;49.902;8.680;2023-06-22T06:00:56;58;52;
79418;PMS5003;68866;49.902;8.680;2023-06-22T06:10:18;52;52;
79418;PMS5003;68866;49.902;8.680;2023-06-22T06:20:50;54;54;
79418;PMS5003;68866;49.902;8.680;2023-06-22T06:30:12;44;44;
79418;PMS5003;68866;49.902;8.680;2023-06-22T06:40:45;46;46;
79418;PMS5003;68866;49.902;8.680;2023-06-22T06:50:07;42;42;
79418;PMS5003;68866;49.902;8.680;2023-06-22T07:00:39;54;42;
79418;PMS5003;68866;49.902;8.680;2023-06-22T07:11:11;42;42;
79418;PMS5003;68866;49.902;8.680;2023-06-22T07:20:32;46;46;
79418;PMS5003;68866;49.902;8.680;2023-06-22T07:31:04;62;50;
79418;PMS5003;68866;49.902;8.680;2023-06-22T07:40:26;60;60;
79418;PMS5003;68866;49.902;8.680;2023-06-22T07:50:58;54;46;
79418;PMS5003;68866;49.902;8.680;2023-06-22T08:00:20;68;56;
79418;PMS5003;68866;49.902;8.680;2023-06-22T08:10:51;44;44;
79418;PMS5003;68866;49.902;8.680;2023-06-22T08:20:13;38;38;
79418;PMS5003;68866;49.902;8.680;2023-06-22T08:30:45;44;44;
79418;PMS5003;68866;49.902;8.680;2023-06-22T08:40:08;54;54;
79418;PMS5003;68866;49.902;8.680;2023-06-22T08:50:40;40;40;
79418;PMS5003;68866;49.902;8.680;2023-06-22T09:01:12;40;40;
79418;PMS5003;68866;49.902;8.680;2023-06-22T09:10:34;44;44;
79418;PMS5003;68866;49.902;8.680;2023-06-22T09:21:06;46;46;
79418;PMS5003;68866;49.902;8.680;2023-06-22T09:30:27;56;44;
79418;PMS5003;68866;49.902;8.680;2023-06-22T09:40:59;42;42;
79418;PMS5003;68866;49.902;8.680;2023-06-22T09:50:21;48;48;
79418;PMS5003;68866;49.902;8.680;2023-06-22T10:00:53;40;40;
79418;PMS5003;68866;49.902;8.680;2023-06-22T10:10:14;62;50;
79418;PMS5003;68866;49.902;8.680;2023-06-22T10:20:47;46;46;
79418;PMS5003;68866;49.902;8.680;2023-06-22T10:36:01;56;46;
79418;PMS5003;68866;49.902;8.680;2023-06-22T10:40:42;52;52;
79418;PMS5003;68866;49.902;8.680;2023-06-22T10:50:04;40;40;
79418;PMS5003;68866;49.902;8.680;2023-06-22T11:00:37;48;48;
79418;PMS5003;68866;49.902;8.680;2023-06-22T11:05:18;40;40;
79418;PMS5003;68866;49.902;8.680;2023-06-22T11:11:10;32;32;
79418;PMS5003;68866;49.902;8.680;2023-06-22T11:20:32;52;42;
79418;PMS5003;68866;49.902;8.680;2023-06-22T11:31:04;42;42;
79418;PMS5003;68866;49.902;8.680;2023-06-22T11:40:26;52;44;
79418;PMS5003;68866;49.902;8.680;2023-06-22T11:50:58;62;54;
79418;PMS5003;68866;49.902;8.680;2023-06-22T12:00:20;36;36;
79418;PMS5003;68866;49.902;8.680;2023-06-22T12:10:51;38;38;
79418;PMS5003;68866;49.902;8.680;2023-06-22T12:20:14;34;34;
79418;PMS5003;68866;49.902;8.680;2023-06-22T12:30:45;48;48;
79418;PMS5003;68866;49.902;8.680;2023-06-22T12:40:07;32;32;
79418;PMS5003;68866;49.902;8.680;2023-06-22T12:50:40;44;36;
79418;PMS5003;68866;49.902;8.680;2023-06-22T13:01:12;44;44;
79418;PMS5003;68866;49.902;8.680;2023-06-22T13:10:34;58;50;
79418;PMS5003;68866;49.902;8.680;2023-06-22T13:21:06;48;48;
79418;PMS5003;68866;49.902;8.680;2023-06-22T13:30:28;40;40;
79418;PMS5003;68866;49.902;8.680;2023-06-22T13:41:00;32;32;
79418;PMS5003;68866;49.902;8.680;2023-06-22T13:50:21;30;30;
79418;PMS5003;68866;49.902;8.680;2023-06-22T14:00:54;56;44;
79418;PMS5003;68866;49.902;8.680;2023-06-22T14:10:15;26;26;
79418;PMS5003;68866;49.902;8.680;2023-06-22T14:20:47;26;26;
79418;PMS5003;68866;49.902;8.680;2023-06-22T14:30:10;24;24;
79418;PMS5003;68866;49.902;8.680;2023-06-22T14:36:02;28;28;
79418;PMS5003;68866;49.902;8.680;2023-06-22T14:40:44;32;32;
79418;PMS5003;68866;49.902;8.680;2023-06-22T14:50:05;26;26;
79418;PMS5003;68866;49.902;8.680;2023-06-22T15:00:38;42;30;
79418;PMS5003;68866;49.902;8.680;2023-06-22T15:11:09;28;28;
79418;PMS5003;68866;49.902;8.680;2023-06-22T15:20:33;20;20;
79418;PMS5003;68866;49.902;8.680;2023-06-22T15:31:05;28;28;
79418;PMS5003;68866;49.902;8.680;2023-06-22T15:40:26;28;28;
79418;PMS5003;68866;49.902;8.680;2023-06-22T15:50:59;24;24;
79418;PMS5003;68866;49.902;8.680;2023-06-22T16:00:21;36;36;
79418;PMS5003;68866;49.902;8.680;2023-06-22T16:10:54;28;28;
79418;PMS5003;68866;49.902;8.680;2023-06-22T16:20:17;22;22;
79418;PMS5003;68866;49.902;8.680;2023-06-22T16:30:49;12;12;
79418;PMS5003;68866;49.902;8.680;2023-06-22T16:40:12;30;16;
79418;PMS5003;68866;49.902;8.680;2023-06-22T16:50:43;38;26;
79418;PMS5003;68866;49.902;8.680;2023-06-22T17:00:05;16;16;
79418;PMS5003;68866;49.902;8.680;2023-06-22T17:10:38;20;20;
79418;PMS5003;68866;49.902;8.680;2023-06-22T17:21:10;30;30;
79418;PMS5003;68866;49.902;8.680;2023-06-22T17:25:52;26;26;
79418;PMS5003;68866;49.902;8.680;2023-06-22T17:30:34;34;34;
79418;PMS5003;68866;49.902;8.680;2023-06-22T17:50:26;22;22;
79418;PMS5003;68866;49.902;8.680;2023-06-22T18:00:58;18;18;
79418;PMS5003;68866;49.902;8.680;2023-06-22T18:10:20;22;22;
79418;PMS5003;68866;49.902;8.680;2023-06-22T18:20:52;26;26;
79418;PMS5003;68866;49.902;8.680;2023-06-22T18:30:16;24;24;
79418;PMS5003;68866;49.902;8.680;2023-06-22T18:40:48;16;16;
79418;PMS5003;68866;49.902;8.680;2023-06-22T18:45:31;18;18;
79418;PMS5003;68866;49.902;8.680;2023-06-22T18:50:12;28;18;
79418;PMS5003;68866;49.902;8.680;2023-06-22T19:00:54;20;20;
79418;PMS5003;68866;49.902;8.680;2023-06-22T19:10:25;16;16;
79418;PMS5003;68866;49.902;8.680;2023-06-22T19:21:00;14;14;
79418;PMS5003;68866;49.902;8.680;2023-06-22T19:30:23;30;30;
79418;PMS5003;68866;49.902;8.680;2023-06-22T19:40:56;22;22;
79418;PMS5003;68866;49.902;8.680;2023-06-22T19:50:19;34;26;
79418;PMS5003;68866;49.902;8.680;2023-06-22T20:00:54;28;18;
79418;PMS5003;68866;49.902;8.680;2023-06-22T20:10:17;16;16;
79418;PMS5003;68866;49.902;8.680;2023-06-22T20:20:50;16;16;
79418;PMS5003;68866;49.902;8.680;2023-06-22T20:30:12;10;10;
79418;PMS5003;68866;49.902;8.680;2023-06-22T20:40:45;8;8;
79418;PMS5003;68866;49.902;8.680;2023-06-22T20:50:07;8;8;
79418;PMS5003;68866;49.902;8.680;2023-06-22T21:00:39;12;12;
79418;PMS5003;68866;49.902;8.680;2023-06-22T21:11:11;12;12;
79418;PMS5003;68866;49.902;8.680;2023-06-22T21:20:33;6;6;
79418;PMS5003;68866;49.902;8.680;2023-06-22T21:31:05;12;12;
